createdAt,value
2022-10-12T00:00:56.965Z,25.25
2022-10-12T00:03:23.687Z,24.25
2022-10-12T00:06:01.956Z,23.35
2022-10-12T00:08:29.256Z,21.65
2022-10-12T00:10:55.797Z,23.10
2022-10-12T00:13:22.375Z,20.55
2022-10-12T00:15:49.515Z,20.35
2022-10-12T00:18:16.094Z,20.00
2022-10-12T00:20:42.650Z,21.88
2022-10-12T00:23:09.157Z,20.27
2022-10-12T00:25:37.756Z,20.50
2022-10-12T00:28:04.817Z,18.42
2022-10-12T00:30:31.352Z,18.27
2022-10-12T00:32:58.128Z,17.45
2022-10-12T00:35:25.148Z,16.27
2022-10-12T00:37:55.469Z,16.52
2022-10-12T00:40:23.225Z,16.55
2022-10-12T00:42:49.712Z,16.08
2022-10-12T00:45:16.522Z,16.88
2022-10-12T00:47:56.597Z,15.45
2022-10-12T00:53:05.738Z,15.77
2022-10-12T00:55:41.622Z,14.07
2022-10-12T00:58:09.056Z,15.13
2022-10-12T01:00:36.876Z,15.23
2022-10-12T01:03:04.603Z,14.80
2022-10-12T01:05:31.111Z,14.57
2022-10-12T01:07:59.723Z,14.18
2022-10-12T01:10:26.843Z,13.75
2022-10-12T01:12:53.407Z,14.60
2022-10-12T01:15:20.038Z,14.48
2022-10-12T01:18:19.776Z,13.55
2022-10-12T01:20:52.229Z,14.60
2022-10-12T01:23:36.244Z,13.85
2022-10-12T01:26:08.575Z,13.95
2022-10-12T01:28:50.275Z,14.98
2022-10-12T01:31:35.346Z,15.18
2022-10-12T01:34:20.237Z,14.23
2022-10-12T01:36:57.900Z,15.80
2022-10-12T01:39:44.741Z,15.10
2022-10-12T01:42:17.847Z,15.10
2022-10-12T01:44:44.421Z,15.27
2022-10-12T01:47:11.015Z,15.55
2022-10-12T01:49:38.052Z,14.55
2022-10-12T01:52:19.228Z,14.75
2022-10-12T01:55:15.811Z,14.85
2022-10-12T01:58:19.767Z,15.25
2022-10-12T02:01:13.142Z,14.25
2022-10-12T02:04:02.499Z,13.73
2022-10-12T02:06:37.456Z,13.53
2022-10-12T02:09:09.686Z,15.10
2022-10-12T02:11:39.583Z,14.52
2022-10-12T02:14:18.682Z,15.95
2022-10-12T02:16:58.111Z,14.57
2022-10-12T02:19:32.493Z,14.63
2022-10-12T02:22:04.647Z,14.20
2022-10-12T02:24:33.508Z,15.70
2022-10-12T02:27:01.371Z,15.32
2022-10-12T02:29:35.826Z,16.05
2022-10-12T02:32:43.993Z,14.65
2022-10-12T02:35:22.955Z,14.27
2022-10-12T02:38:02.018Z,15.07
2022-10-12T02:40:55.544Z,14.27
2022-10-12T02:43:43.902Z,14.77
2022-10-12T02:46:11.602Z,14.38
2022-10-12T02:48:40.172Z,15.90
2022-10-12T02:51:09.173Z,15.40
2022-10-12T02:53:36.025Z,15.93
2022-10-12T02:56:11.668Z,15.40
2022-10-12T02:58:38.656Z,14.65
2022-10-12T03:01:05.748Z,14.80
2022-10-12T03:03:32.321Z,16.05
2022-10-12T03:05:58.801Z,15.55
2022-10-12T03:08:25.285Z,16.08
2022-10-12T03:10:51.838Z,14.70
2022-10-12T03:13:18.353Z,14.88
2022-10-12T03:15:44.936Z,14.93
2022-10-12T03:18:11.488Z,15.43
2022-10-12T03:20:37.945Z,15.82
2022-10-12T03:23:04.469Z,15.13
2022-10-12T03:25:31.128Z,14.93
2022-10-12T03:27:58.731Z,15.23
2022-10-12T03:30:25.219Z,15.55
2022-10-12T03:32:51.748Z,15.27
2022-10-12T03:35:18.250Z,15.55
2022-10-12T03:37:44.705Z,14.98
2022-10-12T03:40:11.650Z,14.13
2022-10-12T03:42:38.170Z,14.20
2022-10-12T03:45:05.061Z,14.05
2022-10-12T03:47:31.534Z,14.30
2022-10-12T03:49:58.077Z,14.20
2022-10-12T03:52:24.533Z,15.80
2022-10-12T03:54:51.001Z,14.32
2022-10-12T03:57:17.482Z,14.48
2022-10-12T03:59:43.981Z,14.90
2022-10-12T04:02:15.828Z,14.05
2022-10-12T04:04:43.725Z,13.63
2022-10-12T04:07:10.358Z,14.40
2022-10-12T04:09:36.832Z,13.25
2022-10-12T04:12:03.328Z,13.32
2022-10-12T04:14:29.922Z,12.52
2022-10-12T04:16:56.606Z,13.52
2022-10-12T04:19:23.090Z,14.40
2022-10-12T04:21:49.534Z,13.77
2022-10-12T04:24:16.068Z,13.98
2022-10-12T04:26:42.524Z,12.65
2022-10-12T04:29:11.192Z,15.05
2022-10-12T04:31:37.797Z,13.40
2022-10-12T04:34:04.294Z,13.63
2022-10-12T04:36:30.955Z,13.38
2022-10-12T04:39:01.033Z,13.98
2022-10-12T04:41:28.287Z,12.60
2022-10-12T04:43:54.860Z,13.27
2022-10-12T04:46:21.825Z,13.15
2022-10-12T04:48:48.304Z,12.98
2022-10-12T04:51:14.753Z,12.88
2022-10-12T04:53:41.304Z,13.88
2022-10-12T04:56:08.115Z,13.35
2022-10-12T04:58:34.876Z,13.73
2022-10-12T05:01:01.388Z,13.98
2022-10-12T05:03:27.963Z,14.18
2022-10-12T05:05:54.413Z,13.35
2022-10-12T05:08:20.942Z,13.00
2022-10-12T05:10:47.483Z,13.52
2022-10-12T05:13:14.606Z,13.05
2022-10-12T05:15:42.742Z,12.98
2022-10-12T05:18:09.207Z,13.95
2022-10-12T05:20:36.049Z,13.75
2022-10-12T05:23:02.597Z,12.82
2022-10-12T05:25:31.866Z,12.18
2022-10-12T05:27:58.357Z,12.85
2022-10-12T05:30:24.940Z,14.07
2022-10-12T05:32:51.404Z,13.57
2022-10-12T05:35:17.945Z,13.07
2022-10-12T05:37:44.494Z,14.38
2022-10-12T05:40:11.089Z,12.85
2022-10-12T05:42:37.934Z,12.98
2022-10-12T05:45:05.261Z,12.75
2022-10-12T05:47:31.795Z,13.32
2022-10-12T05:49:58.264Z,12.95
2022-10-12T05:52:24.767Z,13.65
2022-10-12T05:54:51.251Z,12.63
2022-10-12T05:57:17.841Z,12.85
2022-10-12T05:59:44.346Z,13.60
2022-10-12T06:02:15.799Z,11.40
2022-10-12T06:04:42.782Z,11.80
2022-10-12T06:07:09.546Z,14.30
2022-10-12T06:09:39.013Z,13.10
2022-10-12T06:12:07.024Z,12.63
2022-10-12T06:14:33.588Z,12.63
2022-10-12T06:17:00.163Z,13.05
2022-10-12T06:19:26.640Z,14.00
2022-10-12T06:21:53.092Z,13.02
2022-10-12T06:24:19.653Z,12.45
2022-10-12T06:26:46.112Z,12.68
2022-10-12T06:29:12.625Z,13.05
2022-10-12T06:31:39.957Z,14.00
2022-10-12T06:34:06.667Z,12.60
2022-10-12T06:36:33.167Z,11.38
2022-10-12T06:38:59.630Z,12.38
2022-10-12T06:41:26.118Z,11.70
2022-10-12T06:43:52.624Z,12.32
2022-10-12T06:46:19.107Z,11.98
2022-10-12T06:48:45.587Z,11.85
2022-10-12T06:51:12.078Z,11.35
2022-10-12T06:53:38.572Z,11.10
2022-10-12T06:56:07.220Z,11.55
2022-10-12T06:58:33.772Z,12.13
2022-10-12T07:01:08.434Z,11.10
2022-10-12T07:03:35.036Z,10.88
2022-10-12T07:06:09.835Z,10.80
2022-10-12T07:08:36.660Z,10.50
2022-10-12T07:11:07.975Z,10.13
2022-10-12T07:13:34.759Z,11.23
2022-10-12T07:16:01.488Z,11.23
2022-10-12T07:18:27.977Z,10.57
2022-10-12T07:20:58.549Z,11.07
2022-10-12T07:23:25.627Z,11.27
2022-10-12T07:25:53.386Z,11.35
2022-10-12T07:28:20.739Z,9.73
2022-10-12T07:30:48.168Z,10.55
2022-10-12T07:33:14.699Z,10.43
2022-10-12T07:36:03.365Z,11.75
2022-10-12T07:38:27.805Z,10.10
2022-10-12T07:40:54.448Z,10.57
2022-10-12T07:43:20.957Z,10.50
2022-10-12T07:45:47.471Z,10.98
2022-10-12T07:48:13.953Z,10.98
2022-10-12T07:50:40.429Z,10.88
2022-10-12T07:53:06.940Z,10.55
2022-10-12T07:55:33.567Z,10.48
2022-10-12T07:58:00.244Z,10.52
2022-10-12T08:00:27.939Z,10.80
2022-10-12T08:02:54.494Z,10.38
2022-10-12T08:05:21.371Z,9.90
2022-10-12T08:07:49.376Z,10.48
2022-10-12T08:10:17.525Z,10.68
2022-10-12T08:12:48.478Z,9.93
2022-10-12T08:15:18.460Z,10.85
2022-10-12T08:17:44.951Z,9.82
2022-10-12T08:20:11.660Z,10.93
2022-10-12T08:22:38.181Z,10.77
2022-10-12T08:25:05.399Z,10.68
2022-10-12T08:27:31.988Z,10.05
2022-10-12T08:29:58.606Z,10.75
2022-10-12T08:32:25.500Z,11.25
2022-10-12T08:34:52.068Z,10.55
2022-10-12T08:37:18.563Z,10.57
2022-10-12T08:39:45.035Z,10.52
2022-10-12T08:42:16.504Z,10.85
2022-10-12T08:44:58.761Z,10.00
2022-10-12T08:47:30.020Z,10.30
2022-10-12T08:49:56.789Z,12.02
2022-10-12T08:52:33.687Z,11.25
2022-10-12T08:55:34.984Z,10.43
2022-10-12T08:58:02.275Z,12.18
2022-10-12T09:03:15.510Z,11.57
2022-10-12T09:06:11.659Z,11.50
2022-10-12T09:08:44.153Z,11.18
2022-10-12T09:11:32.766Z,12.10
2022-10-12T09:14:23.765Z,11.57
2022-10-12T09:16:51.901Z,12.45
2022-10-12T09:19:34.842Z,10.98
2022-10-12T09:22:03.258Z,12.43
2022-10-12T09:24:36.082Z,10.80
2022-10-12T09:27:14.835Z,11.00
2022-10-12T09:29:45.002Z,11.00
2022-10-12T09:32:59.063Z,10.88
2022-10-12T09:35:25.622Z,10.75
2022-10-12T09:37:53.853Z,11.07
2022-10-12T09:40:25.183Z,10.93
2022-10-12T09:42:53.719Z,11.50
2022-10-12T09:45:22.656Z,11.52
2022-10-12T09:48:28.155Z,10.83
2022-10-12T09:50:58.724Z,11.88
2022-10-12T09:53:40.512Z,11.38
2022-10-12T09:56:27.663Z,11.07
2022-10-12T09:58:58.734Z,10.93
2022-10-12T10:01:30.446Z,10.77
2022-10-12T10:04:11.814Z,11.63
2022-10-12T10:06:40.853Z,11.98
2022-10-12T10:09:36.262Z,11.87
2022-10-12T10:12:13.739Z,11.70
2022-10-12T10:14:43.870Z,12.25
2022-10-12T10:17:15.670Z,12.70
2022-10-12T10:19:49.331Z,11.82
2022-10-12T10:22:16.530Z,10.88
2022-10-12T10:24:43.269Z,10.68
2022-10-12T10:27:28.240Z,10.30
2022-10-12T10:30:28.579Z,12.02
2022-10-12T10:33:11.877Z,11.85
2022-10-12T10:35:38.515Z,10.52
2022-10-12T10:38:05.131Z,11.35
2022-10-12T10:40:33.405Z,12.25
2022-10-12T10:43:06.521Z,11.15
2022-10-12T10:45:40.711Z,12.23
2022-10-12T10:48:15.755Z,12.70
2022-10-12T10:50:44.750Z,12.20
2022-10-12T10:53:25.730Z,11.53
2022-10-12T10:56:03.212Z,12.48
2022-10-12T10:58:38.395Z,12.32
2022-10-12T11:01:20.689Z,11.32
2022-10-12T11:03:57.418Z,11.48
2022-10-12T11:06:31.936Z,11.38
2022-10-12T11:09:16.069Z,10.77
2022-10-12T11:11:46.137Z,12.18
2022-10-12T11:14:19.533Z,11.73
2022-10-12T11:16:45.929Z,11.63
2022-10-12T11:19:29.613Z,11.63
2022-10-12T11:22:00.794Z,11.45
2022-10-12T11:24:35.887Z,11.05
2022-10-12T11:27:10.636Z,12.13
2022-10-12T11:29:38.136Z,11.32
2022-10-12T11:32:23.021Z,10.80
2022-10-12T11:34:59.908Z,9.25
2022-10-12T11:37:50.734Z,10.95
2022-10-12T11:40:41.556Z,10.65
2022-10-12T11:43:19.535Z,9.70
2022-10-12T11:45:50.487Z,10.63
2022-10-12T11:48:27.123Z,10.45
2022-10-12T11:51:01.315Z,9.40
2022-10-12T11:53:45.381Z,10.25
2022-10-12T11:56:20.907Z,9.13
2022-10-12T11:59:04.512Z,10.20
2022-10-12T12:01:55.862Z,9.20
2022-10-12T12:07:48.963Z,9.13
2022-10-12T12:10:27.872Z,10.15
2022-10-12T12:13:13.312Z,9.57
2022-10-12T12:16:02.808Z,9.75
2022-10-12T12:18:33.974Z,11.00
2022-10-12T12:21:09.374Z,11.63
2022-10-12T12:23:40.409Z,10.60
2022-10-12T12:26:15.701Z,11.82
2022-10-12T12:28:48.505Z,12.38
2022-10-12T12:31:18.083Z,11.55
2022-10-12T12:33:48.085Z,11.20
2022-10-12T12:36:28.630Z,12.20
2022-10-12T12:38:55.907Z,13.15
2022-10-12T12:41:27.584Z,11.15
2022-10-12T12:43:59.409Z,11.32
2022-10-12T12:46:47.361Z,11.50
2022-10-12T12:49:46.154Z,12.48
2022-10-12T12:52:26.485Z,11.33
2022-10-12T12:55:07.986Z,11.02
2022-10-12T12:57:57.532Z,10.77
2022-10-12T13:00:26.419Z,13.02
2022-10-12T13:02:55.570Z,16.43
2022-10-12T13:06:09.505Z,14.57
2022-10-12T13:08:41.949Z,12.48
2022-10-12T13:11:36.728Z,13.75
2022-10-12T13:14:05.938Z,10.63
2022-10-12T13:17:30.204Z,11.80
2022-10-12T13:19:25.882Z,12.15
2022-10-12T13:21:55.573Z,10.70
2022-10-12T13:25:03.961Z,11.52
2022-10-12T13:27:52.952Z,11.68
2022-10-12T13:30:28.540Z,10.95
2022-10-12T13:33:02.072Z,11.82
2022-10-12T13:35:38.620Z,10.68
2022-10-12T13:38:14.020Z,9.70
2022-10-12T13:40:44.774Z,11.40
2022-10-12T13:43:40.325Z,11.25
2022-10-12T13:46:07.199Z,10.48
2022-10-12T13:48:58.148Z,10.30
2022-10-12T13:51:24.133Z,10.65
2022-10-12T13:53:50.637Z,9.57
2022-10-12T13:56:30.091Z,10.05
2022-10-12T13:59:05.345Z,8.77
2022-10-12T14:01:48.140Z,6.70
2022-10-12T14:04:14.753Z,7.82
2022-10-12T14:06:41.246Z,5.68
2022-10-12T14:09:29.570Z,7.28
2022-10-12T14:11:56.922Z,8.48
2022-10-12T14:14:32.402Z,7.28
2022-10-12T14:16:59.611Z,7.18
2022-10-12T14:19:49.097Z,7.88
2022-10-12T14:22:23.697Z,7.80
2022-10-12T14:24:54.108Z,7.47
2022-10-12T14:27:28.562Z,8.05
2022-10-12T14:30:07.322Z,8.27
2022-10-12T14:32:40.892Z,8.82
2022-10-12T14:35:23.680Z,7.97
2022-10-12T14:37:52.353Z,7.68
2022-10-12T14:40:39.441Z,8.55
2022-10-12T14:43:11.933Z,8.57
2022-10-12T14:45:38.606Z,8.52
2022-10-12T14:48:08.984Z,9.40
2022-10-12T14:50:35.552Z,8.88
2022-10-12T14:53:04.788Z,9.05
2022-10-12T14:55:33.741Z,9.23
2022-10-12T14:58:00.554Z,9.40
2022-10-12T15:00:27.009Z,9.63
2022-10-12T15:02:53.749Z,10.77
2022-10-12T15:05:23.037Z,9.45
2022-10-12T15:07:50.240Z,9.65
2022-10-12T15:10:18.988Z,9.27
2022-10-12T15:12:46.610Z,8.35
2022-10-12T15:15:28.975Z,7.43
2022-10-12T15:17:58.674Z,8.30
2022-10-12T15:20:26.892Z,8.55
2022-10-12T15:22:54.807Z,11.38
2022-10-12T15:25:39.242Z,11.68
2022-10-12T15:28:05.900Z,10.60
2022-10-12T23:35:55.625Z,16.55
2022-10-12T23:38:22.292Z,18.73
2022-10-12T23:40:48.792Z,17.92
2022-10-12T23:43:15.291Z,18.02
2022-10-12T23:45:43.700Z,19.08
2022-10-12T23:48:10.713Z,18.25
2022-10-12T23:50:38.410Z,17.33
2022-10-12T23:53:06.085Z,19.13
2022-10-12T23:55:33.236Z,17.70
2022-10-12T23:57:59.866Z,18.17
